sensor_id;sensor_type;location;lat;lon;timestamp;temperature;humidity
12885;DHT22;6510;51.362;7.370;2023-12-20T00:01:03;6.90;99.90
12885;DHT22;6510;51.362;7.370;2023-12-20T00:03:29;7.00;99.90
12885;DHT22;6510;51.362;7.370;2023-12-20T00:05:55;7.00;99.90
12885;DHT22;6510;51.362;7.370;2023-12-20T00:08:21;7.00;99.90
12885;DHT22;6510;51.362;7.370;2023-12-20T00:10:46;7.00;99.90
12885;DHT22;6510;51.362;7.370;2023-12-20T00:13:12;7.00;99.90
12885;DHT22;6510;51.362;7.370;2023-12-20T00:15:38;7.00;99.90
12885;DHT22;6510;51.362;7.370;2023-12-20T00:18:04;6.90;99.90
12885;DHT22;6510;51.362;7.370;2023-12-20T00:20:29;6.90;99.90
12885;DHT22;6510;51.362;7.370;2023-12-20T00:22:58;6.80;99.90
12885;DHT22;6510;51.362;7.370;2023-12-20T00:25:24;6.80;99.90
12885;DHT22;6510;51.362;7.370;2023-12-20T00:27:50;6.70;99.90
12885;DHT22;6510;51.362;7.370;2023-12-20T00:30:16;6.70;99.90
12885;DHT22;6510;51.362;7.370;2023-12-20T00:32:42;6.70;99.90
12885;DHT22;6510;51.362;7.370;2023-12-20T00:35:14;6.70;99.90
12885;DHT22;6510;51.362;7.370;2023-12-20T00:37:40;6.70;99.90
12885;DHT22;6510;51.362;7.370;2023-12-20T00:40:06;6.70;99.90
12885;DHT22;6510;51.362;7.370;2023-12-20T00:42:32;6.70;99.90
12885;DHT22;6510;51.362;7.370;2023-12-20T00:44:59;6.70;99.90
12885;DHT22;6510;51.362;7.370;2023-12-20T00:47:24;6.70;99.90
12885;DHT22;6510;51.362;7.370;2023-12-20T00:49:50;6.70;99.90
12885;DHT22;6510;51.362;7.370;2023-12-20T00:52:15;6.70;99.90
12885;DHT22;6510;51.362;7.370;2023-12-20T00:54:43;6.70;99.90
12885;DHT22;6510;51.362;7.370;2023-12-20T00:57:09;6.70;99.90
12885;DHT22;6510;51.362;7.370;2023-12-20T00:59:34;6.60;99.90
12885;DHT22;6510;51.362;7.370;2023-12-20T01:02:00;6.60;99.90
12885;DHT22;6510;51.362;7.370;2023-12-20T01:04:26;6.60;99.90
12885;DHT22;6510;51.362;7.370;2023-12-20T01:06:53;6.50;99.90
12885;DHT22;6510;51.362;7.370;2023-12-20T01:09:19;6.50;99.90
12885;DHT22;6510;51.362;7.370;2023-12-20T01:11:44;6.50;99.90
12885;DHT22;6510;51.362;7.370;2023-12-20T01:14:12;6.50;99.90
12885;DHT22;6510;51.362;7.370;2023-12-20T01:16:37;6.50;99.90
12885;DHT22;6510;51.362;7.370;2023-12-20T01:19:03;6.40;99.90
12885;DHT22;6510;51.362;7.370;2023-12-20T01:21:29;6.30;99.90
12885;DHT22;6510;51.362;7.370;2023-12-20T01:23:55;6.30;99.90
12885;DHT22;6510;51.362;7.370;2023-12-20T01:26:21;6.20;99.90
12885;DHT22;6510;51.362;7.370;2023-12-20T01:28:46;6.20;99.90
12885;DHT22;6510;51.362;7.370;2023-12-20T01:31:12;6.20;99.90
12885;DHT22;6510;51.362;7.370;2023-12-20T01:33:38;6.10;99.90
12885;DHT22;6510;51.362;7.370;2023-12-20T01:36:04;6.10;99.90
12885;DHT22;6510;51.362;7.370;2023-12-20T01:38:30;6.10;99.90
12885;DHT22;6510;51.362;7.370;2023-12-20T01:40:56;6.10;99.90
12885;DHT22;6510;51.362;7.370;2023-12-20T01:43:21;6.10;99.90
12885;DHT22;6510;51.362;7.370;2023-12-20T01:45:48;6.10;99.90
12885;DHT22;6510;51.362;7.370;2023-12-20T01:48:14;6.10;99.90
12885;DHT22;6510;51.362;7.370;2023-12-20T01:50:40;6.00;99.90
12885;DHT22;6510;51.362;7.370;2023-12-20T01:53:08;6.10;99.90
12885;DHT22;6510;51.362;7.370;2023-12-20T01:55:36;6.00;99.90
12885;DHT22;6510;51.362;7.370;2023-12-20T01:58:04;6.00;99.90
12885;DHT22;6510;51.362;7.370;2023-12-20T02:00:30;6.00;99.90
12885;DHT22;6510;51.362;7.370;2023-12-20T02:03:01;6.00;99.90
12885;DHT22;6510;51.362;7.370;2023-12-20T02:05:27;6.00;99.90
12885;DHT22;6510;51.362;7.370;2023-12-20T02:07:53;6.10;99.90
12885;DHT22;6510;51.362;7.370;2023-12-20T02:10:19;6.00;99.90
12885;DHT22;6510;51.362;7.370;2023-12-20T02:12:45;5.90;99.90
12885;DHT22;6510;51.362;7.370;2023-12-20T02:15:10;5.90;99.90
12885;DHT22;6510;51.362;7.370;2023-12-20T02:17:36;5.90;99.90
12885;DHT22;6510;51.362;7.370;2023-12-20T02:20:04;5.80;99.90
12885;DHT22;6510;51.362;7.370;2023-12-20T02:22:31;5.80;99.90
12885;DHT22;6510;51.362;7.370;2023-12-20T02:24:56;5.90;99.90
12885;DHT22;6510;51.362;7.370;2023-12-20T02:27:23;5.80;99.90
12885;DHT22;6510;51.362;7.370;2023-12-20T02:29:49;5.80;99.90
12885;DHT22;6510;51.362;7.370;2023-12-20T02:32:19;5.70;99.90
12885;DHT22;6510;51.362;7.370;2023-12-20T02:34:47;5.70;99.90
12885;DHT22;6510;51.362;7.370;2023-12-20T02:37:13;5.70;99.90
12885;DHT22;6510;51.362;7.370;2023-12-20T02:39:39;5.60;99.90
12885;DHT22;6510;51.362;7.370;2023-12-20T02:42:04;5.50;99.90
12885;DHT22;6510;51.362;7.370;2023-12-20T02:44:30;5.40;99.90
12885;DHT22;6510;51.362;7.370;2023-12-20T02:46:55;5.40;99.90
12885;DHT22;6510;51.362;7.370;2023-12-20T02:49:21;5.30;99.90
12885;DHT22;6510;51.362;7.370;2023-12-20T02:51:47;5.30;99.90
12885;DHT22;6510;51.362;7.370;2023-12-20T02:54:12;5.20;99.90
12885;DHT22;6510;51.362;7.370;2023-12-20T02:56:38;5.30;99.90
12885;DHT22;6510;51.362;7.370;2023-12-20T02:59:04;5.30;99.90
12885;DHT22;6510;51.362;7.370;2023-12-20T03:01:34;5.30;99.90
12885;DHT22;6510;51.362;7.370;2023-12-20T03:04:00;5.40;99.90
12885;DHT22;6510;51.362;7.370;2023-12-20T03:06:26;5.50;99.90
12885;DHT22;6510;51.362;7.370;2023-12-20T03:08:51;5.40;99.90
12885;DHT22;6510;51.362;7.370;2023-12-20T03:11:17;5.50;99.90
12885;DHT22;6510;51.362;7.370;2023-12-20T03:13:43;5.40;99.90
12885;DHT22;6510;51.362;7.370;2023-12-20T03:16:09;5.50;99.90
12885;DHT22;6510;51.362;7.370;2023-12-20T03:18:36;5.40;99.90
12885;DHT22;6510;51.362;7.370;2023-12-20T03:21:05;5.40;99.90
12885;DHT22;6510;51.362;7.370;2023-12-20T03:23:30;5.40;99.90
12885;DHT22;6510;51.362;7.370;2023-12-20T03:25:58;5.40;99.90
12885;DHT22;6510;51.362;7.370;2023-12-20T03:28:24;5.40;99.90
12885;DHT22;6510;51.362;7.370;2023-12-20T03:30:49;5.40;99.90
12885;DHT22;6510;51.362;7.370;2023-12-20T03:33:15;5.40;99.90
12885;DHT22;6510;51.362;7.370;2023-12-20T03:35:41;5.40;99.90
12885;DHT22;6510;51.362;7.370;2023-12-20T03:38:06;5.30;99.90
12885;DHT22;6510;51.362;7.370;2023-12-20T03:40:32;5.40;99.90
12885;DHT22;6510;51.362;7.370;2023-12-20T03:42:58;5.40;99.90
12885;DHT22;6510;51.362;7.370;2023-12-20T03:45:23;5.30;99.90
12885;DHT22;6510;51.362;7.370;2023-12-20T03:47:49;5.30;99.90
12885;DHT22;6510;51.362;7.370;2023-12-20T03:50:15;5.20;99.90
12885;DHT22;6510;51.362;7.370;2023-12-20T03:52:40;5.10;99.90
12885;DHT22;6510;51.362;7.370;2023-12-20T03:55:06;5.20;99.90
12885;DHT22;6510;51.362;7.370;2023-12-20T03:57:32;5.10;99.90
12885;DHT22;6510;51.362;7.370;2023-12-20T03:59:57;5.10;99.90
12885;DHT22;6510;51.362;7.370;2023-12-20T04:02:23;5.10;99.90
12885;DHT22;6510;51.362;7.370;2023-12-20T04:04:48;5.00;99.90
12885;DHT22;6510;51.362;7.370;2023-12-20T04:07:14;4.90;99.90
12885;DHT22;6510;51.362;7.370;2023-12-20T04:09:41;4.90;99.90
12885;DHT22;6510;51.362;7.370;2023-12-20T04:12:06;5.00;99.90
12885;DHT22;6510;51.362;7.370;2023-12-20T04:14:32;5.00;99.90
12885;DHT22;6510;51.362;7.370;2023-12-20T04:16:58;5.00;99.90
12885;DHT22;6510;51.362;7.370;2023-12-20T04:19:24;5.00;99.90
12885;DHT22;6510;51.362;7.370;2023-12-20T04:21:49;5.00;99.90
12885;DHT22;6510;51.362;7.370;2023-12-20T04:24:15;5.10;99.90
12885;DHT22;6510;51.362;7.370;2023-12-20T04:26:41;5.10;99.90
12885;DHT22;6510;51.362;7.370;2023-12-20T04:29:06;5.10;99.90
12885;DHT22;6510;51.362;7.370;2023-12-20T04:31:32;5.10;99.90
12885;DHT22;6510;51.362;7.370;2023-12-20T04:33:58;5.10;99.90
12885;DHT22;6510;51.362;7.370;2023-12-20T04:36:23;5.20;99.90
12885;DHT22;6510;51.362;7.370;2023-12-20T04:38:52;5.20;99.90
12885;DHT22;6510;51.362;7.370;2023-12-20T04:41:18;5.20;99.90
12885;DHT22;6510;51.362;7.370;2023-12-20T04:43:44;5.20;99.90
12885;DHT22;6510;51.362;7.370;2023-12-20T04:46:10;5.20;99.90
12885;DHT22;6510;51.362;7.370;2023-12-20T04:48:36;5.10;99.90
12885;DHT22;6510;51.362;7.370;2023-12-20T04:51:02;5.10;99.90
12885;DHT22;6510;51.362;7.370;2023-12-20T04:53:27;5.10;99.90
12885;DHT22;6510;51.362;7.370;2023-12-20T04:55:53;5.10;99.90
12885;DHT22;6510;51.362;7.370;2023-12-20T04:58:19;5.10;99.90
12885;DHT22;6510;51.362;7.370;2023-12-20T05:00:44;5.10;99.90
12885;DHT22;6510;51.362;7.370;2023-12-20T05:03:10;5.10;99.90
12885;DHT22;6510;51.362;7.370;2023-12-20T05:05:36;5.10;99.90
12885;DHT22;6510;51.362;7.370;2023-12-20T05:08:02;5.10;99.90
12885;DHT22;6510;51.362;7.370;2023-12-20T05:10:27;5.10;99.90
12885;DHT22;6510;51.362;7.370;2023-12-20T05:12:53;5.10;99.90
12885;DHT22;6510;51.362;7.370;2023-12-20T05:15:22;5.10;99.90
12885;DHT22;6510;51.362;7.370;2023-12-20T05:17:47;5.10;99.90
12885;DHT22;6510;51.362;7.370;2023-12-20T05:20:13;5.10;99.90
12885;DHT22;6510;51.362;7.370;2023-12-20T05:22:38;5.10;99.90
12885;DHT22;6510;51.362;7.370;2023-12-20T05:25:04;5.10;99.90
12885;DHT22;6510;51.362;7.370;2023-12-20T05:27:30;5.10;99.90
12885;DHT22;6510;51.362;7.370;2023-12-20T05:29:56;5.00;99.90
12885;DHT22;6510;51.362;7.370;2023-12-20T05:32:23;5.10;99.90
12885;DHT22;6510;51.362;7.370;2023-12-20T05:34:49;5.10;99.90
12885;DHT22;6510;51.362;7.370;2023-12-20T05:37:14;5.00;99.90
12885;DHT22;6510;51.362;7.370;2023-12-20T05:39:40;5.10;99.90
12885;DHT22;6510;51.362;7.370;2023-12-20T05:42:06;5.20;99.90
12885;DHT22;6510;51.362;7.370;2023-12-20T05:44:31;5.10;99.90
12885;DHT22;6510;51.362;7.370;2023-12-20T05:46:57;5.10;99.90
12885;DHT22;6510;51.362;7.370;2023-12-20T05:49:22;5.00;99.90
12885;DHT22;6510;51.362;7.370;2023-12-20T05:51:48;5.10;99.90
12885;DHT22;6510;51.362;7.370;2023-12-20T05:54:14;5.00;99.90
12885;DHT22;6510;51.362;7.370;2023-12-20T05:56:40;5.00;99.90
12885;DHT22;6510;51.362;7.370;2023-12-20T05:59:05;4.90;99.90
12885;DHT22;6510;51.362;7.370;2023-12-20T06:01:31;5.00;99.90
12885;DHT22;6510;51.362;7.370;2023-12-20T06:03:56;5.00;99.90
12885;DHT22;6510;51.362;7.370;2023-12-20T06:06:23;5.00;99.90
12885;DHT22;6510;51.362;7.370;2023-12-20T06:08:49;5.00;99.90
12885;DHT22;6510;51.362;7.370;2023-12-20T06:11:14;5.00;99.90
12885;DHT22;6510;51.362;7.370;2023-12-20T06:13:40;4.90;99.90
12885;DHT22;6510;51.362;7.370;2023-12-20T06:16:06;4.90;99.90
12885;DHT22;6510;51.362;7.370;2023-12-20T06:18:32;4.90;99.90
12885;DHT22;6510;51.362;7.370;2023-12-20T06:20:58;5.00;99.90
12885;DHT22;6510;51.362;7.370;2023-12-20T06:23:24;5.00;99.90
12885;DHT22;6510;51.362;7.370;2023-12-20T06:25:49;5.00;99.90
12885;DHT22;6510;51.362;7.370;2023-12-20T06:28:15;5.00;99.90
12885;DHT22;6510;51.362;7.370;2023-12-20T06:30:41;5.10;99.90
12885;DHT22;6510;51.362;7.370;2023-12-20T06:33:06;5.10;99.90
12885;DHT22;6510;51.362;7.370;2023-12-20T06:35:32;5.10;99.90
12885;DHT22;6510;51.362;7.370;2023-12-20T06:37:58;5.10;99.90
12885;DHT22;6510;51.362;7.370;2023-12-20T06:40:24;5.10;99.90
12885;DHT22;6510;51.362;7.370;2023-12-20T06:42:49;5.10;99.90
12885;DHT22;6510;51.362;7.370;2023-12-20T06:45:15;5.00;99.90
12885;DHT22;6510;51.362;7.370;2023-12-20T06:47:41;5.00;99.90
12885;DHT22;6510;51.362;7.370;2023-12-20T06:50:06;5.00;99.90
12885;DHT22;6510;51.362;7.370;2023-12-20T06:52:34;5.00;99.90
12885;DHT22;6510;51.362;7.370;2023-12-20T06:55:00;5.00;99.90
12885;DHT22;6510;51.362;7.370;2023-12-20T06:57:26;5.10;99.90
12885;DHT22;6510;51.362;7.370;2023-12-20T06:59:52;5.10;99.90
12885;DHT22;6510;51.362;7.370;2023-12-20T07:02:17;5.10;99.90
12885;DHT22;6510;51.362;7.370;2023-12-20T07:04:43;5.10;99.90
12885;DHT22;6510;51.362;7.370;2023-12-20T07:07:09;5.10;99.90
12885;DHT22;6510;51.362;7.370;2023-12-20T07:09:34;5.10;99.90
12885;DHT22;6510;51.362;7.370;2023-12-20T07:12:00;5.10;99.90
12885;DHT22;6510;51.362;7.370;2023-12-20T07:14:25;5.10;99.90
12885;DHT22;6510;51.362;7.370;2023-12-20T07:16:51;5.10;99.90
12885;DHT22;6510;51.362;7.370;2023-12-20T07:19:17;5.10;99.90
12885;DHT22;6510;51.362;7.370;2023-12-20T07:21:43;5.10;99.90
12885;DHT22;6510;51.362;7.370;2023-12-20T07:24:09;5.10;99.90
12885;DHT22;6510;51.362;7.370;2023-12-20T07:26:35;5.10;99.90
12885;DHT22;6510;51.362;7.370;2023-12-20T07:29:00;5.00;99.90
12885;DHT22;6510;51.362;7.370;2023-12-20T07:31:26;5.10;99.90
12885;DHT22;6510;51.362;7.370;2023-12-20T07:33:52;5.10;99.90
12885;DHT22;6510;51.362;7.370;2023-12-20T07:36:19;5.10;99.90
12885;DHT22;6510;51.362;7.370;2023-12-20T07:38:44;5.10;99.90
12885;DHT22;6510;51.362;7.370;2023-12-20T07:41:10;5.10;99.90
12885;DHT22;6510;51.362;7.370;2023-12-20T07:43:36;5.10;99.90
12885;DHT22;6510;51.362;7.370;2023-12-20T07:46:08;5.10;99.90
12885;DHT22;6510;51.362;7.370;2023-12-20T07:48:37;5.10;99.90
12885;DHT22;6510;51.362;7.370;2023-12-20T07:51:05;5.20;99.90
12885;DHT22;6510;51.362;7.370;2023-12-20T07:53:35;5.10;99.90
12885;DHT22;6510;51.362;7.370;2023-12-20T07:56:01;5.10;99.90
12885;DHT22;6510;51.362;7.370;2023-12-20T07:58:26;5.10;99.90
12885;DHT22;6510;51.362;7.370;2023-12-20T08:00:52;5.20;99.90
12885;DHT22;6510;51.362;7.370;2023-12-20T08:03:17;5.10;99.90
12885;DHT22;6510;51.362;7.370;2023-12-20T08:05:43;5.10;99.90
12885;DHT22;6510;51.362;7.370;2023-12-20T08:08:11;5.20;99.90
12885;DHT22;6510;51.362;7.370;2023-12-20T08:10:37;5.20;99.90
12885;DHT22;6510;51.362;7.370;2023-12-20T08:13:03;5.20;99.90
12885;DHT22;6510;51.362;7.370;2023-12-20T08:15:28;5.20;99.90
12885;DHT22;6510;51.362;7.370;2023-12-20T08:17:54;5.20;99.90
12885;DHT22;6510;51.362;7.370;2023-12-20T08:20:19;5.30;99.90
12885;DHT22;6510;51.362;7.370;2023-12-20T08:22:45;5.30;99.90
12885;DHT22;6510;51.362;7.370;2023-12-20T08:25:11;5.30;99.90
12885;DHT22;6510;51.362;7.370;2023-12-20T08:27:39;5.30;99.90
12885;DHT22;6510;51.362;7.370;2023-12-20T08:30:07;5.30;99.90
12885;DHT22;6510;51.362;7.370;2023-12-20T08:32:33;5.30;99.90
12885;DHT22;6510;51.362;7.370;2023-12-20T08:34:59;5.30;99.90
12885;DHT22;6510;51.362;7.370;2023-12-20T08:37:25;5.30;99.90
12885;DHT22;6510;51.362;7.370;2023-12-20T08:39:53;5.30;99.90
12885;DHT22;6510;51.362;7.370;2023-12-20T08:42:18;5.30;99.90
12885;DHT22;6510;51.362;7.370;2023-12-20T08:44:45;5.40;99.90
12885;DHT22;6510;51.362;7.370;2023-12-20T08:47:10;5.40;99.90
12885;DHT22;6510;51.362;7.370;2023-12-20T08:49:44;5.40;99.90
12885;DHT22;6510;51.362;7.370;2023-12-20T08:52:17;5.50;99.90
12885;DHT22;6510;51.362;7.370;2023-12-20T08:54:51;5.40;99.90
12885;DHT22;6510;51.362;7.370;2023-12-20T08:57:26;5.50;99.90
12885;DHT22;6510;51.362;7.370;2023-12-20T08:59:51;5.60;99.90
12885;DHT22;6510;51.362;7.370;2023-12-20T09:02:32;5.60;99.90
12885;DHT22;6510;51.362;7.370;2023-12-20T09:05:01;5.60;99.90
12885;DHT22;6510;51.362;7.370;2023-12-20T09:07:33;5.60;99.90
12885;DHT22;6510;51.362;7.370;2023-12-20T09:10:07;5.60;99.90
12885;DHT22;6510;51.362;7.370;2023-12-20T09:12:36;5.60;99.90
12885;DHT22;6510;51.362;7.370;2023-12-20T09:15:05;5.60;99.90
12885;DHT22;6510;51.362;7.370;2023-12-20T09:17:38;5.60;99.90
12885;DHT22;6510;51.362;7.370;2023-12-20T09:20:08;5.60;99.90
12885;DHT22;6510;51.362;7.370;2023-12-20T09:22:34;5.60;99.90
12885;DHT22;6510;51.362;7.370;2023-12-20T09:25:00;5.60;99.90
12885;DHT22;6510;51.362;7.370;2023-12-20T09:27:27;5.60;99.90
12885;DHT22;6510;51.362;7.370;2023-12-20T09:29:53;5.60;99.90
12885;DHT22;6510;51.362;7.370;2023-12-20T09:32:19;5.60;99.90
12885;DHT22;6510;51.362;7.370;2023-12-20T09:34:46;5.60;99.90
12885;DHT22;6510;51.362;7.370;2023-12-20T09:37:13;5.70;99.90
12885;DHT22;6510;51.362;7.370;2023-12-20T09:39:39;5.70;99.90
12885;DHT22;6510;51.362;7.370;2023-12-20T09:42:05;5.70;99.90
12885;DHT22;6510;51.362;7.370;2023-12-20T09:44:32;5.70;99.90
12885;DHT22;6510;51.362;7.370;2023-12-20T09:47:02;5.70;99.90
12885;DHT22;6510;51.362;7.370;2023-12-20T09:49:28;5.80;99.90
12885;DHT22;6510;51.362;7.370;2023-12-20T09:51:55;5.80;99.90
12885;DHT22;6510;51.362;7.370;2023-12-20T09:54:22;5.70;99.90
12885;DHT22;6510;51.362;7.370;2023-12-20T09:56:48;5.70;99.90
12885;DHT22;6510;51.362;7.370;2023-12-20T09:59:14;5.70;99.90
12885;DHT22;6510;51.362;7.370;2023-12-20T10:01:40;5.70;99.90
12885;DHT22;6510;51.362;7.370;2023-12-20T10:04:08;5.70;99.90
12885;DHT22;6510;51.362;7.370;2023-12-20T10:06:41;5.80;99.90
12885;DHT22;6510;51.362;7.370;2023-12-20T10:09:07;5.80;99.90
12885;DHT22;6510;51.362;7.370;2023-12-20T10:11:35;5.80;99.90
12885;DHT22;6510;51.362;7.370;2023-12-20T10:14:03;5.90;99.90
12885;DHT22;6510;51.362;7.370;2023-12-20T10:16:29;5.80;99.90
12885;DHT22;6510;51.362;7.370;2023-12-20T10:18:55;5.80;99.90
12885;DHT22;6510;51.362;7.370;2023-12-20T10:21:22;5.80;99.90
12885;DHT22;6510;51.362;7.370;2023-12-20T10:23:48;5.80;99.90
12885;DHT22;6510;51.362;7.370;2023-12-20T10:26:24;5.80;99.90
12885;DHT22;6510;51.362;7.370;2023-12-20T10:28:54;5.80;99.90
12885;DHT22;6510;51.362;7.370;2023-12-20T10:31:28;5.80;99.90
12885;DHT22;6510;51.362;7.370;2023-12-20T10:33:56;5.80;99.90
12885;DHT22;6510;51.362;7.370;2023-12-20T10:36:23;5.80;99.90
12885;DHT22;6510;51.362;7.370;2023-12-20T10:38:50;5.80;99.90
12885;DHT22;6510;51.362;7.370;2023-12-20T10:41:25;5.90;99.90
12885;DHT22;6510;51.362;7.370;2023-12-20T10:43:51;5.80;99.90
12885;DHT22;6510;51.362;7.370;2023-12-20T10:46:19;5.80;99.90
12885;DHT22;6510;51.362;7.370;2023-12-20T10:48:45;5.70;99.90
12885;DHT22;6510;51.362;7.370;2023-12-20T10:51:14;5.70;99.90
12885;DHT22;6510;51.362;7.370;2023-12-20T10:53:43;5.70;99.90
12885;DHT22;6510;51.362;7.370;2023-12-20T10:56:12;5.70;99.90
12885;DHT22;6510;51.362;7.370;2023-12-20T10:58:42;5.70;99.90
12885;DHT22;6510;51.362;7.370;2023-12-20T11:01:09;5.70;99.90
12885;DHT22;6510;51.362;7.370;2023-12-20T11:03:36;5.70;99.90
12885;DHT22;6510;51.362;7.370;2023-12-20T11:09:24;5.90;99.90
12885;DHT22;6510;51.362;7.370;2023-12-20T11:14:51;5.90;99.90
12885;DHT22;6510;51.362;7.370;2023-12-20T11:17:18;5.80;99.90
12885;DHT22;6510;51.362;7.370;2023-12-20T11:20:04;5.90;99.90
12885;DHT22;6510;51.362;7.370;2023-12-20T11:22:31;5.80;99.90
12885;DHT22;6510;51.362;7.370;2023-12-20T11:25:06;5.80;99.90
12885;DHT22;6510;51.362;7.370;2023-12-20T11:27:34;5.70;99.90
12885;DHT22;6510;51.362;7.370;2023-12-20T11:30:03;5.70;99.90
12885;DHT22;6510;51.362;7.370;2023-12-20T11:32:29;5.70;99.90
12885;DHT22;6510;51.362;7.370;2023-12-20T11:34:59;5.70;99.90
12885;DHT22;6510;51.362;7.370;2023-12-20T11:37:30;5.70;99.90
12885;DHT22;6510;51.362;7.370;2023-12-20T11:40:06;5.70;99.90
12885;DHT22;6510;51.362;7.370;2023-12-20T11:42:41;5.70;99.90
12885;DHT22;6510;51.362;7.370;2023-12-20T11:45:15;5.70;99.90
12885;DHT22;6510;51.362;7.370;2023-12-20T11:47:43;5.70;99.90
12885;DHT22;6510;51.362;7.370;2023-12-20T11:50:11;5.70;99.90
12885;DHT22;6510;51.362;7.370;2023-12-20T11:52:36;5.70;99.90
12885;DHT22;6510;51.362;7.370;2023-12-20T11:55:03;5.70;99.90
12885;DHT22;6510;51.362;7.370;2023-12-20T11:57:30;5.70;99.90
12885;DHT22;6510;51.362;7.370;2023-12-20T11:59:56;5.70;99.90
12885;DHT22;6510;51.362;7.370;2023-12-20T12:02:21;5.70;99.90
12885;DHT22;6510;51.362;7.370;2023-12-20T12:04:49;5.70;99.90
12885;DHT22;6510;51.362;7.370;2023-12-20T12:07:16;5.70;99.90
12885;DHT22;6510;51.362;7.370;2023-12-20T12:09:42;5.70;99.90
12885;DHT22;6510;51.362;7.370;2023-12-20T12:12:08;5.70;99.90
12885;DHT22;6510;51.362;7.370;2023-12-20T12:14:34;5.70;99.90
12885;DHT22;6510;51.362;7.370;2023-12-20T12:17:02;5.70;99.90
12885;DHT22;6510;51.362;7.370;2023-12-20T12:19:29;5.70;99.90
12885;DHT22;6510;51.362;7.370;2023-12-20T12:22:07;5.80;99.90
12885;DHT22;6510;51.362;7.370;2023-12-20T12:24:36;5.80;99.90
12885;DHT22;6510;51.362;7.370;2023-12-20T12:27:03;5.90;99.90
12885;DHT22;6510;51.362;7.370;2023-12-20T12:29:29;5.80;99.90
12885;DHT22;6510;51.362;7.370;2023-12-20T12:31:55;5.80;99.90
12885;DHT22;6510;51.362;7.370;2023-12-20T12:34:20;5.80;99.90
12885;DHT22;6510;51.362;7.370;2023-12-20T12:36:46;5.80;99.90
12885;DHT22;6510;51.362;7.370;2023-12-20T12:39:15;5.80;99.90
12885;DHT22;6510;51.362;7.370;2023-12-20T12:41:43;5.80;99.90
12885;DHT22;6510;51.362;7.370;2023-12-20T12:44:08;5.90;99.90
12885;DHT22;6510;51.362;7.370;2023-12-20T12:46:34;5.90;99.90
12885;DHT22;6510;51.362;7.370;2023-12-20T12:49:00;5.90;99.90
12885;DHT22;6510;51.362;7.370;2023-12-20T12:51:26;5.90;99.90
12885;DHT22;6510;51.362;7.370;2023-12-20T12:53:51;5.90;99.90
12885;DHT22;6510;51.362;7.370;2023-12-20T12:56:17;5.90;99.90
12885;DHT22;6510;51.362;7.370;2023-12-20T12:58:43;5.90;99.90
12885;DHT22;6510;51.362;7.370;2023-12-20T13:01:08;5.90;99.90
12885;DHT22;6510;51.362;7.370;2023-12-20T13:03:35;5.80;99.90
12885;DHT22;6510;51.362;7.370;2023-12-20T13:06:00;5.80;99.90
12885;DHT22;6510;51.362;7.370;2023-12-20T13:08:26;5.90;99.90
12885;DHT22;6510;51.362;7.370;2023-12-20T13:10:52;5.90;99.90
12885;DHT22;6510;51.362;7.370;2023-12-20T13:13:17;5.80;99.90
12885;DHT22;6510;51.362;7.370;2023-12-20T13:15:43;5.90;99.90
12885;DHT22;6510;51.362;7.370;2023-12-20T13:18:16;5.90;99.90
12885;DHT22;6510;51.362;7.370;2023-12-20T13:20:42;5.80;99.90
12885;DHT22;6510;51.362;7.370;2023-12-20T13:23:08;5.80;99.90
12885;DHT22;6510;51.362;7.370;2023-12-20T13:25:33;5.90;99.90
12885;DHT22;6510;51.362;7.370;2023-12-20T13:27:59;5.80;99.90
12885;DHT22;6510;51.362;7.370;2023-12-20T13:30:25;5.90;99.90
12885;DHT22;6510;51.362;7.370;2023-12-20T13:32:50;5.80;99.90
12885;DHT22;6510;51.362;7.370;2023-12-20T13:35:16;5.90;99.90
12885;DHT22;6510;51.362;7.370;2023-12-20T13:37:41;5.80;99.90
12885;DHT22;6510;51.362;7.370;2023-12-20T13:40:07;5.80;99.90
12885;DHT22;6510;51.362;7.370;2023-12-20T13:42:33;5.80;99.90
12885;DHT22;6510;51.362;7.370;2023-12-20T13:44:59;5.80;99.90
12885;DHT22;6510;51.362;7.370;2023-12-20T13:47:25;5.80;99.90
12885;DHT22;6510;51.362;7.370;2023-12-20T13:49:50;5.80;99.90
12885;DHT22;6510;51.362;7.370;2023-12-20T13:52:16;5.80;99.90
12885;DHT22;6510;51.362;7.370;2023-12-20T13:54:41;5.80;99.90
12885;DHT22;6510;51.362;7.370;2023-12-20T13:57:07;5.80;99.90
12885;DHT22;6510;51.362;7.370;2023-12-20T13:59:32;5.80;99.90
12885;DHT22;6510;51.362;7.370;2023-12-20T14:01:58;5.80;99.90
12885;DHT22;6510;51.362;7.370;2023-12-20T14:04:24;5.80;99.90
12885;DHT22;6510;51.362;7.370;2023-12-20T14:06:49;5.80;99.90
12885;DHT22;6510;51.362;7.370;2023-12-20T14:09:15;5.80;99.90
12885;DHT22;6510;51.362;7.370;2023-12-20T14:11:41;5.80;99.90
12885;DHT22;6510;51.362;7.370;2023-12-20T14:14:07;5.80;99.90
12885;DHT22;6510;51.362;7.370;2023-12-20T14:16:33;5.80;99.90
12885;DHT22;6510;51.362;7.370;2023-12-20T14:18:59;5.80;99.90
12885;DHT22;6510;51.362;7.370;2023-12-20T14:21:24;5.80;99.90
12885;DHT22;6510;51.362;7.370;2023-12-20T14:23:50;5.80;99.90
12885;DHT22;6510;51.362;7.370;2023-12-20T14:26:17;5.90;99.90
12885;DHT22;6510;51.362;7.370;2023-12-20T14:28:43;5.80;99.90
12885;DHT22;6510;51.362;7.370;2023-12-20T14:31:09;5.90;99.90
12885;DHT22;6510;51.362;7.370;2023-12-20T14:33:36;5.90;99.90
12885;DHT22;6510;51.362;7.370;2023-12-20T14:36:04;5.90;99.90
12885;DHT22;6510;51.362;7.370;2023-12-20T14:38:31;5.90;99.90
12885;DHT22;6510;51.362;7.370;2023-12-20T14:40:56;5.90;99.90
12885;DHT22;6510;51.362;7.370;2023-12-20T14:43:23;5.90;99.90
12885;DHT22;6510;51.362;7.370;2023-12-20T14:45:48;5.90;99.90
12885;DHT22;6510;51.362;7.370;2023-12-20T14:48:14;5.90;99.90
12885;DHT22;6510;51.362;7.370;2023-12-20T14:50:41;5.90;99.90
12885;DHT22;6510;51.362;7.370;2023-12-20T14:53:08;5.90;99.90
12885;DHT22;6510;51.362;7.370;2023-12-20T14:55:33;5.90;99.90
12885;DHT22;6510;51.362;7.370;2023-12-20T14:57:59;5.90;99.90
12885;DHT22;6510;51.362;7.370;2023-12-20T15:00:25;5.90;99.90
12885;DHT22;6510;51.362;7.370;2023-12-20T15:02:50;5.90;99.90
12885;DHT22;6510;51.362;7.370;2023-12-20T15:05:16;5.90;99.90
12885;DHT22;6510;51.362;7.370;2023-12-20T15:07:43;5.90;99.90
12885;DHT22;6510;51.362;7.370;2023-12-20T15:10:09;5.90;99.90
12885;DHT22;6510;51.362;7.370;2023-12-20T15:12:34;6.00;99.90
12885;DHT22;6510;51.362;7.370;2023-12-20T15:15:00;6.00;99.90
12885;DHT22;6510;51.362;7.370;2023-12-20T15:17:26;5.90;99.90
12885;DHT22;6510;51.362;7.370;2023-12-20T15:19:52;6.00;99.90
12885;DHT22;6510;51.362;7.370;2023-12-20T15:22:17;6.00;99.90
12885;DHT22;6510;51.362;7.370;2023-12-20T15:24:43;6.00;99.90
12885;DHT22;6510;51.362;7.370;2023-12-20T15:27:11;6.00;99.90
12885;DHT22;6510;51.362;7.370;2023-12-20T15:29:37;6.10;99.90
12885;DHT22;6510;51.362;7.370;2023-12-20T15:32:03;6.00;99.90
12885;DHT22;6510;51.362;7.370;2023-12-20T15:34:31;6.00;99.90
12885;DHT22;6510;51.362;7.370;2023-12-20T15:36:57;6.00;99.90
12885;DHT22;6510;51.362;7.370;2023-12-20T15:39:23;6.00;99.90
12885;DHT22;6510;51.362;7.370;2023-12-20T15:41:48;6.10;99.90
12885;DHT22;6510;51.362;7.370;2023-12-20T15:44:15;6.10;99.90
12885;DHT22;6510;51.362;7.370;2023-12-20T15:46:41;6.10;99.90
12885;DHT22;6510;51.362;7.370;2023-12-20T15:49:07;6.10;99.90
12885;DHT22;6510;51.362;7.370;2023-12-20T15:51:32;6.10;99.90
12885;DHT22;6510;51.362;7.370;2023-12-20T15:53:59;6.10;99.90
12885;DHT22;6510;51.362;7.370;2023-12-20T15:56:31;6.10;99.90
12885;DHT22;6510;51.362;7.370;2023-12-20T15:58:57;6.10;99.90
12885;DHT22;6510;51.362;7.370;2023-12-20T16:01:24;6.10;99.90
12885;DHT22;6510;51.362;7.370;2023-12-20T16:03:50;6.10;99.90